Time;durP1;ratioP1;P1;durP2;ratioP2;P2;SDS_P1;SDS_P2;PMS_P1;PMS_P2;Temp;Humidity;BMP_temperature;BMP_pressure;BME280_temperature;BME280_humidity;BME280_pressure;Samples;Min_cycle;Max_cycle;Signal;HPM_P1;HPM_P2
2021/04/08 00:01:02;;;;;;;;;;;19.30;28.50;;;;;;491561;240;1202;-68
2021/04/08 00:03:04;;;;;;;;;;;19.40;28.50;;;;;;491713;240;1086;-68
2021/04/08 00:05:05;;;;;;;;;;;19.30;28.50;;;;;;491592;240;942;-68
2021/04/08 00:07:06;;;;;;;;;;;19.40;28.50;;;;;;491647;240;1304;-68
2021/04/08 00:09:08;;;;;;;;;;;19.40;28.40;;;;;;491668;240;967;-68
2021/04/08 00:11:09;;;;;;;;;;;19.30;28.40;;;;;;491548;240;1203;-68
2021/04/08 00:13:10;;;;;;;;;;;19.40;28.40;;;;;;491582;240;1181;-68
2021/04/08 00:15:11;;;;;;;;;;;19.40;28.30;;;;;;491564;240;1181;-68
2021/04/08 00:17:13;;;;;;;;;;;19.40;28.30;;;;;;491594;240;1196;-69
2021/04/08 00:19:14;;;;;;;;;;;19.40;28.30;;;;;;491592;240;2109;-69
2021/04/08 00:21:15;;;;;;;;;;;19.40;28.30;;;;;;491554;240;1081;-68
2021/04/08 00:23:16;;;;;;;;;;;19.40;28.30;;;;;;491581;240;1101;-68
2021/04/08 00:25:18;;;;;;;;;;;19.40;28.30;;;;;;491504;240;1138;-68
2021/04/08 00:27:20;;;;;;;;;;;19.40;28.30;;;;;;491510;240;1089;-68
2021/04/08 00:29:21;;;;;;;;;;;19.40;28.20;;;;;;491574;240;1212;-68
2021/04/08 00:31:22;;;;;;;;;;;19.40;28.20;;;;;;491519;240;1130;-68
2021/04/08 00:33:23;;;;;;;;;;;19.30;28.30;;;;;;491654;240;1167;-68
2021/04/08 00:35:25;;;;;;;;;;;19.30;28.30;;;;;;491608;240;1064;-68
2021/04/08 00:37:26;;;;;;;;;;;19.30;28.30;;;;;;491585;240;2129;-68
2021/04/08 00:39:28;;;;;;;;;;;19.30;28.20;;;;;;491677;240;1193;-68
2021/04/08 00:41:29;;;;;;;;;;;19.30;28.20;;;;;;491575;240;1128;-68
2021/04/08 00:43:30;;;;;;;;;;;19.30;28.20;;;;;;491675;240;982;-68
2021/04/08 00:45:31;;;;;;;;;;;19.30;28.20;;;;;;491616;240;1290;-68
2021/04/08 00:47:33;;;;;;;;;;;19.30;28.20;;;;;;491633;240;1119;-68
2021/04/08 00:49:34;;;;;;;;;;;19.30;28.20;;;;;;491665;240;963;-68
2021/04/08 00:51:36;;;;;;;;;;;19.30;28.20;;;;;;491611;240;1049;-68
2021/04/08 00:53:37;;;;;;;;;;;19.30;28.20;;;;;;491667;240;1069;-68
2021/04/08 00:55:38;;;;;;;;;;;19.30;28.30;;;;;;491574;240;1222;-68
2021/04/08 00:57:40;;;;;;;;;;;19.40;28.20;;;;;;491552;240;2125;-69
2021/04/08 00:59:41;;;;;;;;;;;19.40;28.20;;;;;;491582;240;1175;-69
2021/04/08 01:01:42;;;;;;;;;;;19.40;28.20;;;;;;491596;240;1262;-68
2021/04/08 01:03:43;;;;;;;;;;;19.40;28.20;;;;;;491702;240;1067;-68
2021/04/08 01:05:45;;;;;;;;;;;19.30;28.20;;;;;;491592;240;1012;-68
2021/04/08 01:07:46;;;;;;;;;;;19.40;28.10;;;;;;491624;240;1124;-68
2021/04/08 01:09:47;;;;;;;;;;;19.30;28.10;;;;;;491536;240;974;-68
2021/04/08 01:11:48;;;;;;;;;;;19.30;28.10;;;;;;491712;240;1074;-68
2021/04/08 01:13:50;;;;;;;;;;;19.30;28.10;;;;;;491711;240;1025;-69
2021/04/08 01:15:51;;;;;;;;;;;19.40;28.10;;;;;;491626;240;1172;-68
2021/04/08 01:17:52;;;;;;;;;;;19.30;28.10;;;;;;491689;240;2183;-69
2021/04/08 01:19:54;;;;;;;;;;;19.30;28.10;;;;;;491621;240;1107;-68
2021/04/08 01:21:55;;;;;;;;;;;19.40;28.10;;;;;;491641;240;1053;-68
2021/04/08 01:23:56;;;;;;;;;;;19.30;28.10;;;;;;491700;240;1060;-68
2021/04/08 01:25:57;;;;;;;;;;;19.40;28.10;;;;;;491625;240;1071;-68
2021/04/08 01:27:59;;;;;;;;;;;19.40;28.00;;;;;;491649;240;1085;-69
2021/04/08 01:30:00;;;;;;;;;;;19.40;28.00;;;;;;491726;238;1341;-69
2021/04/08 01:32:01;;;;;;;;;;;19.40;28.00;;;;;;491711;240;1069;-68
2021/04/08 01:34:02;;;;;;;;;;;19.40;28.00;;;;;;491680;240;1041;-68
2021/04/08 01:36:04;;;;;;;;;;;19.40;28.00;;;;;;491620;240;1208;-68
2021/04/08 01:38:05;;;;;;;;;;;19.40;28.00;;;;;;491638;240;2180;-68
2021/04/08 01:40:07;;;;;;;;;;;19.40;27.90;;;;;;491628;240;968;-69
2021/04/08 01:42:08;;;;;;;;;;;19.40;27.90;;;;;;491602;240;1097;-69
2021/04/08 01:44:09;;;;;;;;;;;19.40;27.90;;;;;;491691;240;1215;-68
2021/04/08 01:46:11;;;;;;;;;;;19.40;27.90;;;;;;491525;240;1268;-68
2021/04/08 01:48:12;;;;;;;;;;;19.40;27.90;;;;;;491578;240;1094;-69
2021/04/08 01:50:13;;;;;;;;;;;19.40;27.90;;;;;;491608;240;1000;-68
2021/04/08 01:52:14;;;;;;;;;;;19.40;27.90;;;;;;491544;240;1199;-68
2021/04/08 01:54:16;;;;;;;;;;;19.50;27.90;;;;;;491656;240;1066;-68
2021/04/08 01:56:17;;;;;;;;;;;19.50;27.90;;;;;;491555;240;1172;-68
2021/04/08 01:58:18;;;;;;;;;;;19.50;27.90;;;;;;491701;240;2191;-68
2021/04/08 02:00:20;;;;;;;;;;;19.40;27.90;;;;;;491651;240;1152;-68
2021/04/08 02:02:21;;;;;;;;;;;19.50;27.90;;;;;;491654;240;1224;-68
2021/04/08 02:04:23;;;;;;;;;;;19.50;27.90;;;;;;491611;240;1187;-68
2021/04/08 02:06:24;;;;;;;;;;;19.40;27.80;;;;;;491537;240;1212;-68
2021/04/08 02:08:25;;;;;;;;;;;19.40;27.80;;;;;;491703;240;1092;-68
2021/04/08 02:10:26;;;;;;;;;;;19.50;27.80;;;;;;491615;240;1053;-68
2021/04/08 02:12:28;;;;;;;;;;;19.50;27.80;;;;;;491648;240;1144;-68
2021/04/08 02:14:29;;;;;;;;;;;19.50;27.80;;;;;;491572;240;992;-68
2021/04/08 02:16:30;;;;;;;;;;;19.50;27.80;;;;;;491592;240;1307;-68
2021/04/08 02:18:31;;;;;;;;;;;19.50;27.80;;;;;;491649;240;2212;-68
2021/04/08 02:20:33;;;;;;;;;;;19.50;27.80;;;;;;491567;240;1042;-68
2021/04/08 02:22:34;;;;;;;;;;;19.50;27.80;;;;;;491642;240;962;-68
2021/04/08 02:24:35;;;;;;;;;;;19.50;27.80;;;;;;491717;240;1004;-68
2021/04/08 02:26:37;;;;;;;;;;;19.50;27.80;;;;;;491632;240;1035;-69
2021/04/08 02:28:38;;;;;;;;;;;19.50;27.80;;;;;;491708;240;1072;-69
2021/04/08 02:30:46;;;;;;;;;;;19.50;27.80;;;;;;491641;240;1167;-68
2021/04/08 02:32:47;;;;;;;;;;;19.50;27.90;;;;;;491576;240;1121;-68
2021/04/08 02:34:49;;;;;;;;;;;19.50;27.90;;;;;;491612;240;985;-68
2021/04/08 02:36:50;;;;;;;;;;;19.50;28.00;;;;;;491540;240;1060;-68
2021/04/08 02:38:51;;;;;;;;;;;19.50;28.00;;;;;;491549;240;2188;-68
2021/04/08 02:40:53;;;;;;;;;;;19.40;28.00;;;;;;491580;240;977;-68
2021/04/08 02:42:54;;;;;;;;;;;19.50;28.00;;;;;;491596;240;1031;-68
2021/04/08 02:44:55;;;;;;;;;;;19.40;28.00;;;;;;491570;240;1425;-68
2021/04/08 02:46:56;;;;;;;;;;;19.40;28.10;;;;;;491561;240;1145;-68
2021/04/08 02:48:58;;;;;;;;;;;19.40;28.10;;;;;;491646;240;1109;-69
2021/04/08 02:50:59;;;;;;;;;;;19.40;28.10;;;;;;491578;240;955;-69
2021/04/08 02:53:00;;;;;;;;;;;19.40;28.20;;;;;;491622;240;965;-69
2021/04/08 02:55:02;;;;;;;;;;;19.40;28.20;;;;;;491673;240;1038;-69
2021/04/08 02:57:03;;;;;;;;;;;19.30;28.30;;;;;;491599;240;958;-68
2021/04/08 02:59:04;;;;;;;;;;;19.30;28.30;;;;;;491640;240;2187;-68
2021/04/08 03:01:05;;;;;;;;;;;19.30;28.40;;;;;;491606;240;1318;-69
2021/04/08 03:03:07;;;;;;;;;;;19.30;28.40;;;;;;491657;240;954;-68
2021/04/08 03:05:08;;;;;;;;;;;19.40;28.40;;;;;;491627;240;976;-68
2021/04/08 03:07:09;;;;;;;;;;;19.40;28.40;;;;;;491580;240;1220;-68
2021/04/08 03:09:11;;;;;;;;;;;19.40;28.40;;;;;;491606;240;1022;-69
2021/04/08 03:11:12;;;;;;;;;;;19.30;28.40;;;;;;491581;240;1214;-68
2021/04/08 03:13:13;;;;;;;;;;;19.40;28.40;;;;;;491635;240;1031;-68
2021/04/08 03:15:14;;;;;;;;;;;19.40;28.50;;;;;;491538;240;991;-68
2021/04/08 03:17:16;;;;;;;;;;;19.30;28.50;;;;;;491555;240;1318;-68
2021/04/08 03:19:17;;;;;;;;;;;19.40;28.50;;;;;;491655;240;2180;-68
2021/04/08 03:21:18;;;;;;;;;;;19.30;28.50;;;;;;491583;240;1277;-68
2021/04/08 03:23:20;;;;;;;;;;;19.40;28.50;;;;;;491669;240;1221;-68
2021/04/08 03:25:21;;;;;;;;;;;19.30;28.50;;;;;;491639;240;1068;-68
2021/04/08 03:27:22;;;;;;;;;;;19.40;28.50;;;;;;491605;240;1193;-68
2021/04/08 03:29:23;;;;;;;;;;;19.30;28.50;;;;;;491656;240;1180;-68
2021/04/08 03:31:25;;;;;;;;;;;19.30;28.50;;;;;;491584;240;1160;-68
2021/04/08 03:33:26;;;;;;;;;;;19.30;28.50;;;;;;491629;240;1047;-69
2021/04/08 03:35:27;;;;;;;;;;;19.40;28.60;;;;;;491785;240;1075;-68
2021/04/08 03:37:28;;;;;;;;;;;19.30;28.60;;;;;;491559;240;1099;-68
2021/04/08 03:39:30;;;;;;;;;;;19.30;28.60;;;;;;491521;240;2199;-68
2021/04/08 03:41:31;;;;;;;;;;;19.30;28.60;;;;;;491539;240;980;-68
2021/04/08 03:43:32;;;;;;;;;;;19.30;28.60;;;;;;491615;240;1123;-68
2021/04/08 03:45:33;;;;;;;;;;;19.30;28.60;;;;;;491583;240;1059;-68
2021/04/08 03:47:35;;;;;;;;;;;19.30;28.60;;;;;;491588;240;1133;-68
2021/04/08 03:49:36;;;;;;;;;;;19.30;28.60;;;;;;491531;240;1396;-68
2021/04/08 03:51:38;;;;;;;;;;;19.30;28.70;;;;;;491548;240;1111;-68
2021/04/08 03:53:39;;;;;;;;;;;19.30;28.70;;;;;;491686;240;1072;-68
2021/04/08 03:55:40;;;;;;;;;;;19.30;28.70;;;;;;491581;240;1146;-68
2021/04/08 03:57:42;;;;;;;;;;;19.20;28.70;;;;;;491549;240;1213;-69
2021/04/08 03:59:43;;;;;;;;;;;19.30;28.70;;;;;;491581;240;2147;-68
2021/04/08 04:01:44;;;;;;;;;;;19.30;28.70;;;;;;491513;240;1200;-68
2021/04/08 04:03:45;;;;;;;;;;;19.30;28.70;;;;;;491651;238;1297;-68
2021/04/08 04:05:47;;;;;;;;;;;19.30;28.70;;;;;;491631;240;1050;-68
2021/04/08 04:07:51;;;;;;;;;;;19.30;28.70;;;;;;491605;240;1036;-68
2021/04/08 04:09:52;;;;;;;;;;;19.20;28.70;;;;;;491578;240;1364;-68
2021/04/08 04:11:53;;;;;;;;;;;19.30;28.70;;;;;;491608;240;1109;-68
2021/04/08 04:13:55;;;;;;;;;;;19.20;28.80;;;;;;491599;240;1060;-68
2021/04/08 04:15:56;;;;;;;;;;;19.30;28.70;;;;;;491527;240;1122;-68
2021/04/08 04:17:59;;;;;;;;;;;19.30;28.70;;;;;;491549;240;1256;-68
2021/04/08 04:19:58;;;;;;;;;;;19.30;28.70;;;;;;491498;242;2132;-68
2021/04/08 04:22:00;;;;;;;;;;;19.30;28.70;;;;;;491506;240;1018;-68
2021/04/08 04:24:01;;;;;;;;;;;19.20;28.70;;;;;;491523;240;1046;-68
2021/04/08 04:26:02;;;;;;;;;;;19.20;28.70;;;;;;491469;240;1236;-68
2021/04/08 04:28:04;;;;;;;;;;;19.20;28.70;;;;;;491413;240;1243;-68
2021/04/08 04:30:05;;;;;;;;;;;19.20;28.70;;;;;;491435;240;1146;-68
2021/04/08 04:32:06;;;;;;;;;;;19.20;28.70;;;;;;491495;240;1168;-68
2021/04/08 04:34:07;;;;;;;;;;;19.20;28.70;;;;;;491527;240;1037;-68
2021/04/08 04:36:09;;;;;;;;;;;19.20;28.70;;;;;;491432;240;1280;-68
2021/04/08 04:38:10;;;;;;;;;;;19.20;28.70;;;;;;491354;240;1041;-68
2021/04/08 04:40:11;;;;;;;;;;;19.30;28.70;;;;;;491364;240;2183;-68
2021/04/08 04:42:13;;;;;;;;;;;19.20;28.70;;;;;;491391;240;1103;-68
2021/04/08 04:44:14;;;;;;;;;;;19.20;28.70;;;;;;491494;240;1043;-68
2021/04/08 04:46:15;;;;;;;;;;;19.20;28.70;;;;;;491479;240;1237;-68
2021/04/08 04:48:16;;;;;;;;;;;19.20;28.70;;;;;;491551;240;1200;-68
2021/04/08 04:50:18;;;;;;;;;;;19.20;28.70;;;;;;491462;240;1083;-68
2021/04/08 04:52:19;;;;;;;;;;;19.20;28.70;;;;;;491470;240;1213;-68
2021/04/08 04:54:20;;;;;;;;;;;19.20;28.70;;;;;;491357;240;1034;-68
2021/04/08 04:56:22;;;;;;;;;;;19.20;28.70;;;;;;491358;240;1147;-68
2021/04/08 04:58:23;;;;;;;;;;;19.20;28.70;;;;;;491328;240;1266;-68
2021/04/08 05:00:24;;;;;;;;;;;19.20;28.70;;;;;;491304;240;2180;-68
2021/04/08 05:02:25;;;;;;;;;;;19.20;28.70;;;;;;491247;240;1158;-68
2021/04/08 05:04:27;;;;;;;;;;;19.20;28.70;;;;;;491349;240;1065;-68
2021/04/08 05:06:28;;;;;;;;;;;19.20;28.70;;;;;;491193;240;1202;-68
2021/04/08 05:08:29;;;;;;;;;;;19.20;28.70;;;;;;491287;240;1067;-68
2021/04/08 05:10:31;;;;;;;;;;;19.30;28.70;;;;;;491317;240;1139;-68
2021/04/08 05:12:32;;;;;;;;;;;19.30;28.60;;;;;;491311;240;1098;-68
2021/04/08 05:14:33;;;;;;;;;;;19.30;28.60;;;;;;491358;240;1121;-68
2021/04/08 05:16:34;;;;;;;;;;;19.30;28.60;;;;;;491309;240;1174;-68
2021/04/08 05:18:36;;;;;;;;;;;19.30;28.60;;;;;;491405;240;1164;-68
2021/04/08 05:20:37;;;;;;;;;;;19.30;28.60;;;;;;491317;240;2285;-68
2021/04/08 05:22:38;;;;;;;;;;;19.30;28.70;;;;;;491307;240;1058;-68
2021/04/08 05:24:40;;;;;;;;;;;19.30;28.60;;;;;;491318;240;996;-68
2021/04/08 05:26:41;;;;;;;;;;;19.30;28.60;;;;;;491325;240;1061;-68
2021/04/08 05:28:42;;;;;;;;;;;19.20;28.60;;;;;;491379;240;1045;-68
2021/04/08 05:30:43;;;;;;;;;;;19.30;28.70;;;;;;491286;240;1089;-68
2021/04/08 05:32:45;;;;;;;;;;;19.20;28.70;;;;;;491299;240;1147;-68
2021/04/08 05:34:46;;;;;;;;;;;19.20;28.60;;;;;;491342;240;1083;-68
2021/04/08 05:36:47;;;;;;;;;;;19.30;28.60;;;;;;491309;240;1126;-68
2021/04/08 05:38:48;;;;;;;;;;;19.30;28.60;;;;;;491327;240;1108;-68
2021/04/08 05:40:50;;;;;;;;;;;19.30;28.60;;;;;;491223;240;2175;-68
2021/04/08 05:42:51;;;;;;;;;;;19.30;28.60;;;;;;491262;240;1060;-68
2021/04/08 05:44:52;;;;;;;;;;;19.30;28.60;;;;;;491215;240;1077;-68
2021/04/08 05:46:54;;;;;;;;;;;19.30;28.60;;;;;;491229;240;1341;-68
2021/04/08 05:48:55;;;;;;;;;;;19.30;28.60;;;;;;491285;240;1181;-68
2021/04/08 05:50:56;;;;;;;;;;;19.30;28.60;;;;;;491185;240;1246;-68
2021/04/08 05:52:57;;;;;;;;;;;19.30;28.60;;;;;;491006;240;1036;-68
2021/04/08 05:54:59;;;;;;;;;;;19.30;28.70;;;;;;491010;240;1052;-68
2021/04/08 05:57:00;;;;;;;;;;;19.30;28.70;;;;;;491176;240;1125;-69
2021/04/08 05:59:01;;;;;;;;;;;19.30;28.70;;;;;;491186;240;1076;-68
2021/04/08 06:01:03;;;;;;;;;;;19.30;28.70;;;;;;491107;240;2180;-68
2021/04/08 06:03:04;;;;;;;;;;;19.30;28.70;;;;;;491006;240;1167;-68
2021/04/08 06:05:05;;;;;;;;;;;19.30;28.70;;;;;;490894;240;1087;-68
2021/04/08 06:07:06;;;;;;;;;;;19.30;28.70;;;;;;490967;240;1182;-68
2021/04/08 06:09:08;;;;;;;;;;;19.30;28.70;;;;;;491020;240;1094;-68
2021/04/08 06:11:09;;;;;;;;;;;19.30;28.70;;;;;;491065;240;1268;-68
2021/04/08 06:13:10;;;;;;;;;;;19.30;28.80;;;;;;491101;240;1053;-68
2021/04/08 06:15:11;;;;;;;;;;;19.30;28.80;;;;;;491176;240;1140;-68
2021/04/08 06:17:13;;;;;;;;;;;19.30;28.80;;;;;;491130;240;1203;-68
2021/04/08 06:19:14;;;;;;;;;;;19.30;28.80;;;;;;491149;240;1149;-68
2021/04/08 06:21:15;;;;;;;;;;;19.30;28.80;;;;;;491042;240;2109;-68
2021/04/08 06:23:16;;;;;;;;;;;19.30;28.80;;;;;;491081;240;1062;-68
2021/04/08 06:25:18;;;;;;;;;;;19.30;28.70;;;;;;490968;240;1276;-68
2021/04/08 06:27:19;;;;;;;;;;;19.30;28.70;;;;;;490993;240;1064;-68
2021/04/08 06:29:20;;;;;;;;;;;19.30;28.80;;;;;;491088;240;1108;-68
2021/04/08 06:31:22;;;;;;;;;;;19.20;28.80;;;;;;490879;240;1051;-68
2021/04/08 06:33:23;;;;;;;;;;;19.20;28.80;;;;;;491150;240;1272;-68
2021/04/08 06:35:25;;;;;;;;;;;19.30;28.80;;;;;;491140;240;1137;-68
2021/04/08 06:37:25;;;;;;;;;;;19.30;28.80;;;;;;491122;240;1049;-68
2021/04/08 06:39:29;;;;;;;;;;;19.30;28.80;;;;;;491142;240;2129;-68
2021/04/08 06:41:28;;;;;;;;;;;19.30;28.80;;;;;;491087;241;1608;-68
2021/04/08 06:43:30;;;;;;;;;;;19.30;28.80;;;;;;490675;240;1315;-68
2021/04/08 06:45:31;;;;;;;;;;;19.30;28.80;;;;;;491010;240;1042;-68
2021/04/08 06:47:32;;;;;;;;;;;19.30;28.80;;;;;;490932;240;1209;-68
2021/04/08 06:49:34;;;;;;;;;;;19.30;28.80;;;;;;490873;240;1145;-68
2021/04/08 06:51:35;;;;;;;;;;;19.30;28.80;;;;;;490981;240;1396;-68
2021/04/08 06:53:36;;;;;;;;;;;19.30;28.80;;;;;;491040;240;1053;-68
2021/04/08 06:55:38;;;;;;;;;;;19.30;28.80;;;;;;490925;240;1514;-68
2021/04/08 06:57:41;;;;;;;;;;;19.30;28.80;;;;;;491000;240;1198;-68
2021/04/08 06:59:41;;;;;;;;;;;19.20;28.80;;;;;;491011;240;2191;-68
2021/04/08 07:01:43;;;;;;;;;;;19.10;28.90;;;;;;490922;240;1180;-68
2021/04/08 07:03:43;;;;;;;;;;;19.20;28.90;;;;;;490919;240;1210;-68
2021/04/08 07:05:45;;;;;;;;;;;19.20;28.80;;;;;;490760;240;1214;-68
2021/04/08 07:07:46;;;;;;;;;;;19.20;28.80;;;;;;490910;240;1164;-68
2021/04/08 07:09:48;;;;;;;;;;;19.30;28.80;;;;;;490732;240;1023;-68
2021/04/08 07:11:50;;;;;;;;;;;19.20;28.80;;;;;;490696;240;1292;-68
2021/04/08 07:13:50;;;;;;;;;;;19.20;28.80;;;;;;490775;240;1708;-68
2021/04/08 07:15:51;;;;;;;;;;;19.20;28.80;;;;;;490728;240;1190;-68
2021/04/08 07:17:53;;;;;;;;;;;19.20;28.80;;;;;;490856;240;1103;-68
2021/04/08 07:19:54;;;;;;;;;;;19.10;28.80;;;;;;490880;240;2168;-68
2021/04/08 07:21:55;;;;;;;;;;;19.20;28.80;;;;;;490931;240;1075;-68
2021/04/08 07:23:57;;;;;;;;;;;19.20;28.80;;;;;;490837;240;1146;-68
2021/04/08 07:25:58;;;;;;;;;;;19.20;28.80;;;;;;490661;240;1087;-68
2021/04/08 07:27:59;;;;;;;;;;;19.10;28.80;;;;;;490755;240;1298;-68
2021/04/08 07:30:00;;;;;;;;;;;19.20;28.70;;;;;;490954;240;1069;-68
2021/04/08 07:32:02;;;;;;;;;;;19.10;28.70;;;;;;490774;238;1184;-68
2021/04/08 07:34:03;;;;;;;;;;;19.10;28.70;;;;;;490749;242;1149;-68
2021/04/08 07:36:05;;;;;;;;;;;19.20;28.80;;;;;;490764;240;1047;-68
2021/04/08 07:38:06;;;;;;;;;;;19.20;28.70;;;;;;490754;240;1215;-68
2021/04/08 07:40:07;;;;;;;;;;;19.20;28.60;;;;;;490694;240;2168;-68
2021/04/08 07:42:09;;;;;;;;;;;19.20;28.60;;;;;;490750;240;1058;-68
2021/04/08 07:44:10;;;;;;;;;;;19.20;28.70;;;;;;490121;241;1068;-69
2021/04/08 07:46:11;;;;;;;;;;;19.20;28.70;;;;;;490577;240;1092;-69
2021/04/08 07:48:12;;;;;;;;;;;19.20;28.60;;;;;;490803;240;1061;-69
2021/04/08 07:50:15;;;;;;;;;;;19.20;28.60;;;;;;490711;240;1185;-69
2021/04/08 07:52:16;;;;;;;;;;;19.20;28.60;;;;;;490838;240;1088;-69
2021/04/08 07:54:17;;;;;;;;;;;19.20;28.60;;;;;;490937;240;1173;-71
2021/04/08 07:56:19;;;;;;;;;;;19.20;28.60;;;;;;490890;240;1185;-72
2021/04/08 07:58:20;;;;;;;;;;;19.20;28.60;;;;;;490930;240;1227;-72
2021/04/08 08:00:21;;;;;;;;;;;19.20;28.60;;;;;;490748;240;2171;-72
2021/04/08 08:02:23;;;;;;;;;;;19.20;28.60;;;;;;490845;240;1193;-73
2021/04/08 08:04:24;;;;;;;;;;;19.20;28.60;;;;;;490668;240;1155;-73
2021/04/08 08:06:25;;;;;;;;;;;19.20;28.50;;;;;;490721;240;1113;-72
2021/04/08 08:08:26;;;;;;;;;;;19.20;28.50;;;;;;490760;240;1080;-72
2021/04/08 08:10:28;;;;;;;;;;;19.20;28.50;;;;;;490707;240;1187;-72
2021/04/08 08:12:29;;;;;;;;;;;19.20;28.50;;;;;;490764;240;1145;-72
2021/04/08 08:14:31;;;;;;;;;;;19.30;28.50;;;;;;490974;240;1148;-72
2021/04/08 08:16:32;;;;;;;;;;;19.20;28.50;;;;;;490914;240;1094;-72
2021/04/08 08:18:33;;;;;;;;;;;19.20;28.60;;;;;;490798;240;1098;-72
2021/04/08 08:20:34;;;;;;;;;;;19.20;28.60;;;;;;490672;240;2180;-73
2021/04/08 08:22:36;;;;;;;;;;;19.30;28.60;;;;;;490561;240;1087;-73
2021/04/08 08:24:37;;;;;;;;;;;19.20;28.60;;;;;;490591;240;1194;-73
2021/04/08 08:26:38;;;;;;;;;;;19.30;28.70;;;;;;490859;240;1029;-73
2021/04/08 08:28:40;;;;;;;;;;;19.30;28.70;;;;;;490768;240;1067;-72
2021/04/08 08:30:52;;;;;;;;;;;19.30;28.70;;;;;;490724;240;1065;-72
2021/04/08 08:32:53;;;;;;;;;;;19.30;28.70;;;;;;490791;240;1172;-72
2021/04/08 08:34:55;;;;;;;;;;;19.30;28.70;;;;;;490637;240;1295;-72
2021/04/08 08:36:58;;;;;;;;;;;19.30;28.80;;;;;;490717;240;1247;-72
2021/04/08 08:39:01;;;;;;;;;;;19.30;28.80;;;;;;490765;240;1042;-72
2021/04/08 08:41:02;;;;;;;;;;;19.30;28.80;;;;;;490639;240;2168;-72
2021/04/08 08:43:04;;;;;;;;;;;19.20;28.90;;;;;;490708;240;1048;-73
2021/04/08 08:45:04;;;;;;;;;;;19.30;28.90;;;;;;490594;241;1242;-73
2021/04/08 08:47:06;;;;;;;;;;;19.20;28.90;;;;;;490853;240;1125;-73
2021/04/08 08:49:07;;;;;;;;;;;19.30;28.90;;;;;;490694;240;1122;-72
2021/04/08 08:51:08;;;;;;;;;;;19.30;28.90;;;;;;490640;240;1291;-72
2021/04/08 08:53:10;;;;;;;;;;;19.30;28.90;;;;;;490692;240;1109;-73
2021/04/08 08:55:11;;;;;;;;;;;19.30;28.90;;;;;;490787;240;1071;-72
2021/04/08 08:57:12;;;;;;;;;;;19.40;28.90;;;;;;490804;241;1363;-72
2021/04/08 08:59:13;;;;;;;;;;;19.40;28.90;;;;;;490998;240;1071;-72
2021/04/08 09:01:15;;;;;;;;;;;19.40;28.90;;;;;;490877;240;2184;-72
2021/04/08 09:03:16;;;;;;;;;;;19.40;28.80;;;;;;490863;240;1310;-73
2021/04/08 09:05:18;;;;;;;;;;;19.40;28.90;;;;;;490771;240;1261;-73
2021/04/08 09:07:19;;;;;;;;;;;19.40;28.90;;;;;;490709;240;1433;-73
2021/04/08 09:09:23;;;;;;;;;;;19.50;28.90;;;;;;490660;240;1123;-73
2021/04/08 09:11:23;;;;;;;;;;;19.50;28.90;;;;;;490440;241;1481;-72
2021/04/08 09:13:23;;;;;;;;;;;19.50;28.90;;;;;;490729;240;1486;-73
2021/04/08 09:15:25;;;;;;;;;;;19.50;28.80;;;;;;490805;240;1049;-73
2021/04/08 09:17:26;;;;;;;;;;;19.50;28.80;;;;;;490811;240;1063;-73
2021/04/08 09:19:28;;;;;;;;;;;19.60;28.80;;;;;;490866;240;1046;-73
2021/04/08 09:21:28;;;;;;;;;;;19.60;28.80;;;;;;490785;240;2183;-73
2021/04/08 09:23:30;;;;;;;;;;;19.70;28.70;;;;;;490960;240;1051;-72
2021/04/08 09:25:31;;;;;;;;;;;19.70;28.80;;;;;;490922;240;1142;-72
2021/04/08 09:27:32;;;;;;;;;;;19.70;28.60;;;;;;490812;241;1163;-72
2021/04/08 09:29:34;;;;;;;;;;;19.70;28.60;;;;;;490660;240;1123;-72
2021/04/08 09:31:35;;;;;;;;;;;19.60;28.60;;;;;;490667;240;1105;-73
2021/04/08 09:33:36;;;;;;;;;;;19.70;28.60;;;;;;490763;240;1151;-72
2021/04/08 09:35:37;;;;;;;;;;;19.60;28.60;;;;;;490661;240;1175;-72
2021/04/08 09:37:39;;;;;;;;;;;19.70;28.50;;;;;;490865;240;1076;-72
2021/04/08 09:39:40;;;;;;;;;;;19.70;28.50;;;;;;490798;240;1080;-72
2021/04/08 09:41:42;;;;;;;;;;;19.70;28.30;;;;;;490838;240;2141;-72
2021/04/08 09:43:43;;;;;;;;;;;19.70;28.30;;;;;;491040;240;1077;-72
2021/04/08 09:45:44;;;;;;;;;;;19.80;28.20;;;;;;490962;240;1065;-72
2021/04/08 09:47:45;;;;;;;;;;;19.80;28.20;;;;;;491010;240;1092;-72
2021/04/08 09:49:47;;;;;;;;;;;19.80;28.10;;;;;;490824;240;1130;-72
2021/04/08 09:51:49;;;;;;;;;;;19.80;28.10;;;;;;490951;240;1083;-72
2021/04/08 09:53:50;;;;;;;;;;;19.80;28.00;;;;;;490704;240;1118;-72
2021/04/08 09:55:51;;;;;;;;;;;19.80;28.00;;;;;;490596;240;1182;-72
2021/04/08 09:57:52;;;;;;;;;;;19.90;27.90;;;;;;490632;240;1104;-73
2021/04/08 09:59:54;;;;;;;;;;;19.80;27.90;;;;;;490484;240;1043;-72
2021/04/08 10:01:55;;;;;;;;;;;19.80;27.90;;;;;;490555;240;2129;-72
2021/04/08 10:03:56;;;;;;;;;;;19.80;27.90;;;;;;490752;240;1263;-73
2021/04/08 10:05:58;;;;;;;;;;;19.80;27.90;;;;;;490819;240;1247;-73
2021/04/08 10:07:59;;;;;;;;;;;19.80;27.90;;;;;;490787;240;1134;-73
2021/04/08 10:10:00;;;;;;;;;;;19.90;27.90;;;;;;490678;240;1084;-73
2021/04/08 10:12:01;;;;;;;;;;;19.90;27.80;;;;;;490665;241;1102;-73
2021/04/08 10:14:03;;;;;;;;;;;19.80;27.90;;;;;;490652;240;1092;-73
2021/04/08 10:16:04;;;;;;;;;;;19.80;27.90;;;;;;490609;241;1144;-73
2021/04/08 10:18:05;;;;;;;;;;;19.70;28.00;;;;;;490698;240;1085;-73
2021/04/08 10:20:06;;;;;;;;;;;19.80;28.00;;;;;;490772;240;1058;-73
2021/04/08 10:22:09;;;;;;;;;;;19.80;28.00;;;;;;490792;240;2163;-73
2021/04/08 10:24:09;;;;;;;;;;;19.80;28.00;;;;;;490768;241;1326;-73
2021/04/08 10:26:10;;;;;;;;;;;19.80;28.00;;;;;;490730;240;1054;-73
2021/04/08 10:28:12;;;;;;;;;;;19.80;28.00;;;;;;490590;240;1066;-73
2021/04/08 10:30:13;;;;;;;;;;;19.80;27.90;;;;;;490684;240;1040;-73
2021/04/08 10:32:14;;;;;;;;;;;19.80;27.90;;;;;;490643;240;1060;-73
2021/04/08 10:34:16;;;;;;;;;;;19.80;27.90;;;;;;490694;240;1066;-73
2021/04/08 10:36:17;;;;;;;;;;;19.80;27.90;;;;;;490786;240;1124;-73
2021/04/08 10:38:18;;;;;;;;;;;19.80;28.00;;;;;;490822;240;1151;-73
2021/04/08 10:40:19;;;;;;;;;;;19.80;28.00;;;;;;490850;240;1051;-73
2021/04/08 10:42:22;;;;;;;;;;;19.70;28.00;;;;;;490665;240;2183;-73
2021/04/08 10:44:22;;;;;;;;;;;19.70;27.90;;;;;;490123;242;1323;-73
2021/04/08 10:46:23;;;;;;;;;;;19.70;28.00;;;;;;490895;240;1100;-73
2021/04/08 10:48:24;;;;;;;;;;;19.80;28.00;;;;;;490799;240;1163;-73
2021/04/08 10:50:26;;;;;;;;;;;19.70;28.00;;;;;;490649;240;1060;-72
2021/04/08 10:52:27;;;;;;;;;;;19.80;28.00;;;;;;490829;240;1095;-73
2021/04/08 10:54:28;;;;;;;;;;;19.80;28.00;;;;;;490743;240;1266;-73
2021/04/08 10:56:30;;;;;;;;;;;19.80;27.90;;;;;;490683;240;1105;-73
2021/04/08 10:58:33;;;;;;;;;;;19.80;28.00;;;;;;490709;240;1055;-73
2021/04/08 11:00:33;;;;;;;;;;;19.80;28.00;;;;;;490782;242;1512;-73
2021/04/08 11:02:34;;;;;;;;;;;19.80;28.00;;;;;;490828;240;2184;-73
2021/04/08 11:04:35;;;;;;;;;;;19.80;28.00;;;;;;490763;240;1038;-73
2021/04/08 11:06:37;;;;;;;;;;;19.80;28.00;;;;;;490656;240;1129;-73
2021/04/08 11:08:38;;;;;;;;;;;19.80;28.10;;;;;;490880;240;1044;-72
2021/04/08 11:10:39;;;;;;;;;;;19.80;28.10;;;;;;490712;240;1108;-72
2021/04/08 11:12:41;;;;;;;;;;;19.70;28.10;;;;;;490816;240;1139;-72
2021/04/08 11:14:42;;;;;;;;;;;19.80;28.10;;;;;;490827;240;1093;-73
2021/04/08 11:16:43;;;;;;;;;;;19.80;28.00;;;;;;490829;240;1111;-73
2021/04/08 11:18:44;;;;;;;;;;;19.80;28.00;;;;;;490805;240;1022;-73
2021/04/08 11:20:46;;;;;;;;;;;19.80;28.00;;;;;;490654;240;1157;-72
2021/04/08 11:22:47;;;;;;;;;;;19.80;28.00;;;;;;490909;240;2203;-72
2021/04/08 11:24:48;;;;;;;;;;;19.80;28.00;;;;;;490640;240;1075;-72
2021/04/08 11:26:50;;;;;;;;;;;19.80;28.00;;;;;;490719;240;1216;-73
2021/04/08 11:28:51;;;;;;;;;;;19.80;28.00;;;;;;490692;240;1128;-71
2021/04/08 11:30:52;;;;;;;;;;;19.80;28.00;;;;;;490791;240;1069;-71
2021/04/08 11:32:53;;;;;;;;;;;19.80;28.10;;;;;;490881;241;1067;-71
2021/04/08 11:34:55;;;;;;;;;;;19.80;28.10;;;;;;490901;240;1089;-71
2021/04/08 11:36:56;;;;;;;;;;;19.70;28.20;;;;;;490873;240;1182;-71
2021/04/08 11:38:57;;;;;;;;;;;19.80;28.20;;;;;;490767;240;1114;-71
2021/04/08 11:40:58;;;;;;;;;;;19.80;28.20;;;;;;490735;240;1075;-71
2021/04/08 11:43:00;;;;;;;;;;;19.70;28.20;;;;;;490762;241;2217;-71
2021/04/08 11:45:01;;;;;;;;;;;19.70;28.20;;;;;;490775;240;1118;-71
2021/04/08 11:47:02;;;;;;;;;;;19.70;28.30;;;;;;490693;240;1071;-71
2021/04/08 11:49:04;;;;;;;;;;;19.70;28.40;;;;;;490577;240;1110;-71
2021/04/08 11:51:05;;;;;;;;;;;19.60;28.40;;;;;;490635;240;1061;-71
2021/04/08 11:53:06;;;;;;;;;;;19.70;28.40;;;;;;490549;240;1146;-71
2021/04/08 11:55:08;;;;;;;;;;;19.70;28.40;;;;;;490691;240;1076;-71
2021/04/08 11:57:09;;;;;;;;;;;19.70;28.40;;;;;;490600;240;1261;-71